createdAt,value
2018-05-31T00:00:13.623Z,23.25
2018-05-31T00:02:41.715Z,23.23
2018-05-31T00:05:09.643Z,23.20
2018-05-31T00:07:37.995Z,23.13
2018-05-31T00:10:06.092Z,23.14
2018-05-31T00:12:33.960Z,23.16
2018-05-31T00:15:02.028Z,23.10
2018-05-31T00:17:30.102Z,23.11
2018-05-31T00:19:58.172Z,23.13
2018-05-31T00:22:26.256Z,23.14
2018-05-31T00:24:54.267Z,23.12
2018-05-31T00:27:22.182Z,23.15
2018-05-31T00:29:50.456Z,23.18
2018-05-31T00:32:18.459Z,23.15
2018-05-31T00:34:46.434Z,23.16
2018-05-31T00:39:42.047Z,23.15
2018-05-31T00:42:10.092Z,23.11
2018-05-31T00:44:38.369Z,23.06
2018-05-31T00:47:06.211Z,23.04
2018-05-31T00:49:34.309Z,23.01
2018-05-31T00:52:02.484Z,23.01
2018-05-31T00:54:30.352Z,22.98
2018-05-31T00:56:58.623Z,23.01
2018-05-31T00:59:26.625Z,22.99
2018-05-31T01:01:54.438Z,22.96
2018-05-31T01:04:22.734Z,22.91
2018-05-31T01:06:50.703Z,22.88
2018-05-31T01:09:18.428Z,22.83
2018-05-31T01:11:46.460Z,22.83
2018-05-31T01:14:14.643Z,22.80
2018-05-31T01:16:42.783Z,22.78
2018-05-31T01:19:10.650Z,22.75
2018-05-31T01:21:38.772Z,22.74
2018-05-31T01:24:06.691Z,22.71
2018-05-31T01:26:34.762Z,22.67
2018-05-31T01:29:03.142Z,22.69
2018-05-31T01:31:30.987Z,22.67
2018-05-31T01:33:58.873Z,22.72
2018-05-31T01:36:27.123Z,22.72
2018-05-31T01:38:55.014Z,22.76
2018-05-31T01:41:22.821Z,22.72
2018-05-31T01:43:50.985Z,22.75
2018-05-31T01:46:18.769Z,22.73
2018-05-31T01:48:46.583Z,22.76
2018-05-31T01:51:14.666Z,22.77
2018-05-31T01:53:42.524Z,22.75
2018-05-31T01:56:10.513Z,22.72
2018-05-31T01:58:38.973Z,22.72
2018-05-31T02:01:07.201Z,22.69
2018-05-31T02:03:35.079Z,22.64
2018-05-31T02:06:03.389Z,22.64
2018-05-31T02:08:31.565Z,22.65
2018-05-31T02:10:59.441Z,22.64
2018-05-31T02:13:27.503Z,22.64
2018-05-31T02:15:55.677Z,22.64
2018-05-31T02:18:23.539Z,22.55
2018-05-31T02:20:51.612Z,22.47
2018-05-31T02:23:19.787Z,22.43
2018-05-31T02:25:47.568Z,22.38
2018-05-31T02:28:15.727Z,22.35
2018-05-31T02:30:43.854Z,22.24
2018-05-31T02:33:11.827Z,22.23
2018-05-31T02:35:40.144Z,22.14
2018-05-31T02:38:08.221Z,22.07
2018-05-31T02:40:36.084Z,22.13
2018-05-31T02:43:04.154Z,22.10
2018-05-31T02:45:32.144Z,22.03
2018-05-31T02:48:00.107Z,21.93
2018-05-31T02:50:28.261Z,21.89
2018-05-31T02:52:56.188Z,21.92
2018-05-31T02:55:24.203Z,21.85
2018-05-31T02:57:52.376Z,21.89
2018-05-31T03:00:20.185Z,21.86
2018-05-31T03:02:48.315Z,21.86
2018-05-31T03:05:16.415Z,21.84
2018-05-31T03:07:44.683Z,21.81
2018-05-31T03:10:12.677Z,21.67
2018-05-31T03:12:40.798Z,21.71
2018-05-31T03:15:08.667Z,21.73
2018-05-31T03:17:36.666Z,21.66
2018-05-31T03:20:04.920Z,21.63
2018-05-31T03:22:32.778Z,21.63
2018-05-31T03:25:00.703Z,21.59
2018-05-31T03:27:28.694Z,21.56
2018-05-31T03:29:56.582Z,21.55
2018-05-31T03:32:24.752Z,21.52
2018-05-31T03:34:53.133Z,21.48
2018-05-31T03:37:20.999Z,21.40
2018-05-31T03:39:48.791Z,21.40
2018-05-31T03:42:17.365Z,21.41
2018-05-31T03:44:45.460Z,21.45
2018-05-31T03:47:13.348Z,21.39
2018-05-31T03:49:41.449Z,21.34
2018-05-31T03:52:09.329Z,21.33
2018-05-31T03:54:37.186Z,21.38
2018-05-31T03:57:05.596Z,21.39
2018-05-31T03:59:33.434Z,21.41
2018-05-31T04:02:01.433Z,21.46
2018-05-31T04:04:29.713Z,21.47
2018-05-31T04:06:57.875Z,21.40
2018-05-31T04:09:26.028Z,21.34
2018-05-31T04:11:54.045Z,21.30
2018-05-31T04:14:22.088Z,21.35
2018-05-31T04:16:50.238Z,21.32
2018-05-31T04:19:18.313Z,21.23
2018-05-31T04:21:47.443Z,21.38
2018-05-31T04:24:15.189Z,21.44
2018-05-31T04:26:43.258Z,21.45
2018-05-31T04:29:11.541Z,21.39
2018-05-31T04:31:39.540Z,21.45
2018-05-31T04:34:07.612Z,21.46
2018-05-31T04:36:36.058Z,21.40
2018-05-31T04:39:04.166Z,21.33
2018-05-31T04:41:32.179Z,21.36
2018-05-31T04:43:59.893Z,21.40
2018-05-31T04:46:28.003Z,21.40
2018-05-31T04:48:55.906Z,21.33
2018-05-31T04:51:23.731Z,21.32
2018-05-31T04:53:51.843Z,21.27
2018-05-31T04:56:19.913Z,21.43
2018-05-31T04:58:47.654Z,21.38
2018-05-31T05:01:15.924Z,21.26
2018-05-31T05:03:43.984Z,21.44
2018-05-31T05:06:11.727Z,21.55
2018-05-31T05:08:40.191Z,21.49
2018-05-31T05:11:08.569Z,21.53
2018-05-31T05:13:36.325Z,21.60
2018-05-31T05:16:04.460Z,21.55
2018-05-31T05:18:32.444Z,21.49
2018-05-31T05:21:00.258Z,21.42
2018-05-31T05:23:28.139Z,21.43
2018-05-31T05:25:56.437Z,21.29
2018-05-31T05:28:24.508Z,21.37
2018-05-31T05:30:52.309Z,21.35
2018-05-31T05:33:20.388Z,21.35
2018-05-31T05:35:48.138Z,21.40
2018-05-31T05:38:16.073Z,21.35
2018-05-31T05:40:44.557Z,21.46
2018-05-31T05:43:12.577Z,21.57
2018-05-31T05:45:40.391Z,21.69
2018-05-31T05:48:08.508Z,21.74
2018-05-31T05:50:36.636Z,21.80
2018-05-31T05:53:04.500Z,21.81
2018-05-31T05:55:32.578Z,21.91
2018-05-31T05:58:00.645Z,21.92
2018-05-31T06:00:28.511Z,21.74
2018-05-31T06:02:56.584Z,21.95
2018-05-31T06:05:24.862Z,22.00
2018-05-31T06:07:52.659Z,22.15
2018-05-31T06:10:20.757Z,22.22
2018-05-31T06:12:48.930Z,22.25
2018-05-31T06:15:16.961Z,22.26
2018-05-31T06:17:44.952Z,22.23
2018-05-31T06:20:12.840Z,22.22
2018-05-31T06:22:40.972Z,22.25
2018-05-31T06:25:09.021Z,22.25
2018-05-31T06:27:36.827Z,22.29
2018-05-31T06:30:04.985Z,22.33
2018-05-31T06:32:33.129Z,22.31
2018-05-31T06:35:01.104Z,22.40
2018-05-31T06:37:29.181Z,22.43
2018-05-31T06:39:57.348Z,22.54
2018-05-31T06:42:25.177Z,22.54
2018-05-31T06:44:53.283Z,22.61
2018-05-31T06:47:21.583Z,22.66
2018-05-31T06:49:49.423Z,22.67
2018-05-31T06:52:17.223Z,22.68
2018-05-31T06:54:45.418Z,22.78
2018-05-31T06:57:13.329Z,22.89
2018-05-31T06:59:41.407Z,22.92
2018-05-31T07:02:09.677Z,22.95
2018-05-31T07:04:37.547Z,23.00
2018-05-31T07:07:05.514Z,23.14
2018-05-31T07:09:33.808Z,23.21
2018-05-31T07:12:01.630Z,23.23
2018-05-31T07:14:29.825Z,23.26
2018-05-31T07:16:58.140Z,23.25
2018-05-31T07:19:26.290Z,23.19
2018-05-31T07:21:54.145Z,23.34
2018-05-31T07:24:22.410Z,23.46
2018-05-31T07:26:50.390Z,23.59
2018-05-31T07:29:18.267Z,23.63
2018-05-31T07:31:46.173Z,23.75
2018-05-31T07:34:14.293Z,24.65
2018-05-31T07:36:42.143Z,26.51
2018-05-31T07:39:10.288Z,27.50
2018-05-31T07:41:38.176Z,28.09
2018-05-31T07:44:06.064Z,28.64
2018-05-31T07:46:34.148Z,28.64
2018-05-31T07:49:02.108Z,29.24
2018-05-31T07:51:30.215Z,28.94
2018-05-31T07:53:58.354Z,28.78
2018-05-31T07:56:26.202Z,28.98
2018-05-31T07:58:54.084Z,29.42
2018-05-31T08:01:22.255Z,29.01
2018-05-31T08:03:50.127Z,27.99
2018-05-31T08:06:18.264Z,27.74
2018-05-31T08:08:46.612Z,27.76
2018-05-31T08:11:14.598Z,27.77
2018-05-31T08:13:42.393Z,27.88
2018-05-31T08:16:11.094Z,28.20
2018-05-31T08:18:38.930Z,28.38
2018-05-31T08:21:06.773Z,28.30
2018-05-31T08:23:35.023Z,28.09
2018-05-31T08:26:02.870Z,28.08
2018-05-31T08:28:30.739Z,28.27
2018-05-31T08:30:58.939Z,28.06
2018-05-31T08:33:26.907Z,27.81
2018-05-31T08:35:54.743Z,27.99
2018-05-31T08:38:23.097Z,28.15
2018-05-31T08:40:51.485Z,27.86
2018-05-31T08:43:19.366Z,27.76
2018-05-31T08:45:47.571Z,27.86
2018-05-31T08:48:15.743Z,28.26
2018-05-31T08:50:43.579Z,28.40
2018-05-31T08:53:11.861Z,27.94
2018-05-31T08:55:40.037Z,28.03
2018-05-31T08:58:08.053Z,28.21
2018-05-31T09:00:36.183Z,28.00
2018-05-31T09:03:04.102Z,27.86
2018-05-31T09:05:32.198Z,27.77
2018-05-31T09:08:00.184Z,27.85
2018-05-31T09:10:28.049Z,28.20
2018-05-31T09:12:56.224Z,28.38
2018-05-31T09:15:24.219Z,28.28
2018-05-31T09:17:52.299Z,28.47
2018-05-31T09:20:21.166Z,28.62
2018-05-31T09:22:49.224Z,28.74
2018-05-31T09:25:17.067Z,28.84
2018-05-31T09:27:45.262Z,28.72
2018-05-31T09:30:13.625Z,28.30
2018-05-31T09:32:41.497Z,28.62
2018-05-31T09:35:09.326Z,28.95
2018-05-31T09:37:37.561Z,29.20
2018-05-31T09:40:05.305Z,29.01
2018-05-31T09:42:33.179Z,28.78
2018-05-31T09:45:01.282Z,28.58
2018-05-31T09:47:29.116Z,28.34
2018-05-31T09:49:56.981Z,28.26
2018-05-31T09:52:25.369Z,28.13
2018-05-31T09:54:53.128Z,28.05
2018-05-31T09:57:20.894Z,28.14
2018-05-31T09:59:49.042Z,28.04
2018-05-31T10:02:17.270Z,28.19
2018-05-31T10:04:45.115Z,28.34
2018-05-31T10:07:13.276Z,28.20
2018-05-31T10:09:42.276Z,28.33
2018-05-31T10:12:10.132Z,28.13
2018-05-31T10:14:38.413Z,28.35
2018-05-31T10:17:06.387Z,28.22
2018-05-31T10:19:34.658Z,28.14
2018-05-31T10:22:02.829Z,28.07
2018-05-31T10:24:30.803Z,28.11
2018-05-31T10:26:58.807Z,28.29
2018-05-31T10:29:27.197Z,28.32
2018-05-31T10:31:55.009Z,28.39
2018-05-31T10:34:23.050Z,28.15
2018-05-31T10:36:51.256Z,28.25
2018-05-31T10:39:19.282Z,28.53
2018-05-31T10:41:47.213Z,28.40
2018-05-31T10:44:15.381Z,28.38
2018-05-31T10:46:43.538Z,28.39
2018-05-31T10:49:11.612Z,28.25
2018-05-31T10:51:39.669Z,28.16
2018-05-31T10:54:07.470Z,28.12
2018-05-31T10:56:35.622Z,28.16
2018-05-31T10:59:03.795Z,28.15
2018-05-31T11:01:31.662Z,28.05
2018-05-31T11:03:59.768Z,28.12
2018-05-31T11:06:28.032Z,28.19
2018-05-31T11:08:55.896Z,28.12
2018-05-31T11:11:24.596Z,28.02
2018-05-31T11:13:54.272Z,28.20
2018-05-31T11:16:22.239Z,28.18
2018-05-31T11:18:50.048Z,28.20
2018-05-31T11:21:18.611Z,28.32
2018-05-31T11:23:46.454Z,28.48
2018-05-31T11:26:14.318Z,28.46
2018-05-31T11:28:42.701Z,28.35
2018-05-31T11:31:10.535Z,28.42
2018-05-31T11:33:38.473Z,28.64
2018-05-31T11:36:06.712Z,28.74
2018-05-31T11:38:34.719Z,28.61
2018-05-31T11:41:02.649Z,28.61
2018-05-31T11:43:30.820Z,28.63
2018-05-31T11:45:58.948Z,28.86
2018-05-31T11:48:26.938Z,28.99
2018-05-31T11:50:54.920Z,28.82
2018-05-31T11:53:23.105Z,28.71
2018-05-31T11:55:50.972Z,28.60
2018-05-31T11:58:19.041Z,28.80
2018-05-31T12:00:47.120Z,28.99
2018-05-31T12:03:15.898Z,29.05
2018-05-31T12:05:43.968Z,28.89
2018-05-31T12:08:11.994Z,29.03
2018-05-31T12:10:39.845Z,28.93
2018-05-31T12:13:07.979Z,29.09
2018-05-31T12:15:36.152Z,29.04
2018-05-31T12:18:04.000Z,29.23
2018-05-31T12:20:32.089Z,29.18
2018-05-31T12:23:00.778Z,29.16
2018-05-31T12:25:28.771Z,29.46
2018-05-31T12:27:56.716Z,29.53
2018-05-31T12:30:24.734Z,29.58
2018-05-31T12:32:52.680Z,29.53
2018-05-31T12:35:21.670Z,29.62
2018-05-31T12:37:50.137Z,29.43
2018-05-31T12:40:18.269Z,29.49
2018-05-31T12:42:46.471Z,29.48
2018-05-31T12:45:14.440Z,29.30
2018-05-31T12:47:42.510Z,29.34
2018-05-31T12:50:10.668Z,29.61
2018-05-31T12:52:38.653Z,29.71
2018-05-31T12:55:06.637Z,29.83
2018-05-31T12:57:34.718Z,29.87
2018-05-31T13:00:02.713Z,29.53
2018-05-31T13:02:30.842Z,29.68
2018-05-31T13:04:59.010Z,29.70
2018-05-31T13:07:27.283Z,29.76
2018-05-31T13:09:55.423Z,29.71
2018-05-31T13:12:23.663Z,29.92
2018-05-31T13:14:51.447Z,30.02
2018-05-31T13:17:19.262Z,29.97
2018-05-31T13:19:47.486Z,30.02
2018-05-31T13:22:15.301Z,30.03
2018-05-31T13:24:43.544Z,30.08
2018-05-31T13:27:11.689Z,30.21
2018-05-31T13:29:39.767Z,30.27
2018-05-31T13:32:07.597Z,30.23
2018-05-31T13:34:35.974Z,30.14
2018-05-31T13:37:04.297Z,30.29
2018-05-31T13:39:32.111Z,30.36
2018-05-31T13:42:00.287Z,30.35
2018-05-31T13:44:28.437Z,30.50
2018-05-31T13:46:57.247Z,30.52
2018-05-31T13:49:25.173Z,30.34
2018-05-31T13:51:53.201Z,30.40
2018-05-31T13:54:21.053Z,30.42
2018-05-31T13:56:49.227Z,30.59
2018-05-31T13:59:17.233Z,30.44
2018-05-31T14:01:45.263Z,30.47
2018-05-31T14:04:13.367Z,30.33
2018-05-31T14:06:49.081Z,30.50
2018-05-31T14:09:17.074Z,30.41
2018-05-31T14:11:44.917Z,30.40
2018-05-31T14:14:12.914Z,30.46
2018-05-31T14:16:40.956Z,30.42
2018-05-31T14:19:08.798Z,30.34
2018-05-31T14:21:36.841Z,30.32
2018-05-31T14:24:04.864Z,30.45
2018-05-31T14:26:32.894Z,30.38
2018-05-31T14:29:01.217Z,30.26
2018-05-31T14:31:29.340Z,30.36
2018-05-31T14:33:57.249Z,30.51
2018-05-31T14:36:25.425Z,30.64
2018-05-31T14:38:54.215Z,30.53
2018-05-31T14:41:22.144Z,30.58
2018-05-31T14:43:51.089Z,30.54
2018-05-31T14:46:19.143Z,30.45
2018-05-31T14:48:47.940Z,30.40
2018-05-31T14:51:15.821Z,30.31
2018-05-31T14:53:43.782Z,30.31
2018-05-31T14:56:11.633Z,30.56
2018-05-31T14:58:39.602Z,30.34
2018-05-31T15:01:07.717Z,30.30
2018-05-31T15:03:35.492Z,30.21
2018-05-31T15:06:03.642Z,29.98
2018-05-31T15:08:31.682Z,29.88
2018-05-31T15:10:59.492Z,30.17
2018-05-31T15:13:27.891Z,30.37
2018-05-31T15:15:56.084Z,30.47
2018-05-31T15:18:24.174Z,30.34
2018-05-31T15:20:52.219Z,30.49
2018-05-31T15:23:21.918Z,30.34
2018-05-31T15:25:49.671Z,30.19
2018-05-31T15:28:18.200Z,30.23
2018-05-31T15:30:46.275Z,30.04
2018-05-31T15:33:14.177Z,30.09
2018-05-31T15:35:42.310Z,30.16
2018-05-31T15:38:10.686Z,30.09
2018-05-31T15:40:38.556Z,30.14
2018-05-31T15:43:06.553Z,29.89
2018-05-31T15:45:35.536Z,30.00
2018-05-31T15:48:03.383Z,30.07
2018-05-31T15:50:32.373Z,29.96
2018-05-31T15:53:00.555Z,29.82
2018-05-31T15:55:28.424Z,29.74
2018-05-31T15:57:56.412Z,29.87
2018-05-31T16:00:24.513Z,29.91
2018-05-31T16:02:52.269Z,30.14
2018-05-31T16:05:20.395Z,29.99
2018-05-31T16:07:48.467Z,29.95
2018-05-31T16:10:16.440Z,29.96
2018-05-31T16:12:44.561Z,30.04
2018-05-31T16:15:12.794Z,29.96
2018-05-31T16:17:41.676Z,29.91
2018-05-31T16:20:09.678Z,30.00
2018-05-31T16:22:38.731Z,29.96
2018-05-31T16:25:06.807Z,29.91
2018-05-31T16:27:35.392Z,29.91
2018-05-31T16:30:04.006Z,29.87
2018-05-31T16:32:31.788Z,29.90
2018-05-31T16:35:00.044Z,29.97
2018-05-31T16:37:28.290Z,29.98
2018-05-31T16:39:56.151Z,29.93
2018-05-31T16:42:24.225Z,29.74
2018-05-31T16:44:52.332Z,29.71
2018-05-31T16:47:20.676Z,29.61
2018-05-31T16:49:49.054Z,29.73
2018-05-31T16:52:18.013Z,29.67
2018-05-31T16:54:45.918Z,29.68
2018-05-31T16:57:13.898Z,29.75
2018-05-31T16:59:42.184Z,29.82
2018-05-31T17:02:10.054Z,29.86
2018-05-31T17:04:37.848Z,29.74
2018-05-31T17:07:06.093Z,29.58
2018-05-31T17:09:33.827Z,29.62
2018-05-31T17:12:01.618Z,29.65
2018-05-31T17:14:29.977Z,29.53
2018-05-31T17:16:57.836Z,29.52
2018-05-31T17:19:25.802Z,29.36
2018-05-31T17:21:53.978Z,29.30
2018-05-31T17:24:21.918Z,29.42
2018-05-31T17:26:49.815Z,29.35
2018-05-31T17:29:18.068Z,29.30
2018-05-31T17:31:46.211Z,29.24
2018-05-31T17:34:14.096Z,29.24
2018-05-31T17:36:42.228Z,29.28
2018-05-31T17:39:10.373Z,29.25
2018-05-31T17:41:38.240Z,29.21
2018-05-31T17:44:06.519Z,29.10
2018-05-31T17:46:38.855Z,29.05
2018-05-31T17:49:06.864Z,28.98
2018-05-31T17:51:35.029Z,28.93
2018-05-31T17:54:04.124Z,28.92
2018-05-31T17:56:32.003Z,28.88
2018-05-31T17:59:00.166Z,28.81
2018-05-31T18:01:28.249Z,28.76
2018-05-31T18:03:56.207Z,28.79
2018-05-31T18:06:24.492Z,28.72
2018-05-31T18:08:52.624Z,28.62
2018-05-31T18:11:20.734Z,28.53
2018-05-31T18:13:48.927Z,28.50
2018-05-31T18:16:16.867Z,28.40
2018-05-31T18:18:44.643Z,28.39
2018-05-31T18:21:13.013Z,28.39
2018-05-31T18:23:40.936Z,28.37
2018-05-31T18:26:08.914Z,28.34
2018-05-31T18:28:36.806Z,28.26
2018-05-31T18:31:05.100Z,28.17
2018-05-31T18:33:33.060Z,28.13
2018-05-31T18:36:01.115Z,28.09
2018-05-31T18:38:29.206Z,28.05
2018-05-31T18:40:57.068Z,27.98
2018-05-31T18:43:26.418Z,27.97
2018-05-31T18:45:54.430Z,27.90
2018-05-31T18:48:22.272Z,27.89
2018-05-31T18:50:50.303Z,27.72
2018-05-31T18:53:18.433Z,27.80
2018-05-31T18:55:46.316Z,27.74
2018-05-31T18:58:14.371Z,27.70
2018-05-31T19:00:42.458Z,27.67
2018-05-31T19:03:10.480Z,27.64
2018-05-31T19:05:38.495Z,27.60
2018-05-31T19:08:06.728Z,27.62
2018-05-31T19:10:34.577Z,27.43
2018-05-31T19:13:08.014Z,27.48
2018-05-31T19:15:36.323Z,27.40
2018-05-31T19:18:04.641Z,27.42
2018-05-31T19:20:32.864Z,27.44
2018-05-31T19:23:01.515Z,27.41
2018-05-31T19:25:29.827Z,27.44
2018-05-31T19:27:58.166Z,27.27
2018-05-31T19:30:31.818Z,27.10
2018-05-31T19:32:59.762Z,27.22
2018-05-31T19:35:33.584Z,27.10
2018-05-31T19:38:01.840Z,27.10
2018-05-31T19:40:29.934Z,27.06
2018-05-31T19:43:03.540Z,27.02
2018-05-31T19:45:31.674Z,26.87
2018-05-31T19:47:59.834Z,26.80
2018-05-31T19:50:27.873Z,26.72
2018-05-31T19:53:01.554Z,26.65
2018-05-31T19:55:29.767Z,26.63
2018-05-31T19:58:03.121Z,26.65
2018-05-31T20:00:36.517Z,26.57
2018-05-31T20:03:09.969Z,26.45
2018-05-31T20:05:38.261Z,26.36
2018-05-31T20:08:05.981Z,26.28
2018-05-31T20:10:33.935Z,26.22
2018-05-31T20:13:02.048Z,26.20
2018-05-31T20:15:29.918Z,26.14
2018-05-31T20:17:57.627Z,26.02
2018-05-31T20:20:25.804Z,26.03
2018-05-31T20:22:53.636Z,25.94
2018-05-31T20:25:21.364Z,25.86
2018-05-31T20:27:49.626Z,25.83
2018-05-31T20:30:17.374Z,25.83
2018-05-31T20:32:45.155Z,25.76
2018-05-31T20:35:13.423Z,25.75
2018-05-31T20:37:41.573Z,25.73
2018-05-31T20:40:09.422Z,25.70
2018-05-31T20:42:37.625Z,25.66
2018-05-31T20:45:05.924Z,25.63
2018-05-31T20:47:34.095Z,25.53
2018-05-31T20:50:02.099Z,25.43
2018-05-31T20:52:30.193Z,25.36
2018-05-31T20:54:58.008Z,25.31
2018-05-31T20:57:26.084Z,25.27
2018-05-31T20:59:54.022Z,25.22
2018-05-31T21:02:21.835Z,25.15
2018-05-31T21:04:50.781Z,25.10
2018-05-31T21:07:18.802Z,25.01
2018-05-31T21:09:46.653Z,24.96
2018-05-31T21:12:14.692Z,24.83
2018-05-31T21:14:42.853Z,24.78
2018-05-31T21:17:10.835Z,24.76
2018-05-31T21:19:39.045Z,24.77
2018-05-31T21:22:07.173Z,24.72
2018-05-31T21:24:34.954Z,24.70
2018-05-31T21:27:03.162Z,24.63
2018-05-31T21:29:31.218Z,24.59
2018-05-31T21:31:59.255Z,24.56
2018-05-31T21:34:27.142Z,24.53
2018-05-31T21:36:54.983Z,24.38
2018-05-31T21:39:23.225Z,24.30
2018-05-31T21:41:51.381Z,24.27
2018-05-31T21:44:19.243Z,24.19
2018-05-31T21:46:47.464Z,24.16
2018-05-31T21:49:15.536Z,24.15
2018-05-31T21:51:43.417Z,24.06
2018-05-31T21:54:11.710Z,23.99
2018-05-31T21:56:39.708Z,23.93
2018-05-31T21:59:07.460Z,23.87
2018-05-31T22:01:35.895Z,23.75
2018-05-31T22:04:04.212Z,23.78
2018-05-31T22:06:32.035Z,23.80
2018-05-31T22:08:59.899Z,23.82
2018-05-31T22:11:28.363Z,23.74
2018-05-31T22:13:56.250Z,23.63
2018-05-31T22:16:24.002Z,23.51
2018-05-31T22:18:52.535Z,23.46
2018-05-31T22:21:20.531Z,23.43
2018-05-31T22:23:48.535Z,23.36
2018-05-31T22:26:17.682Z,23.30
2018-05-31T22:28:45.806Z,23.29
2018-05-31T22:31:13.824Z,23.24
2018-05-31T22:33:42.356Z,23.17
2018-05-31T22:36:10.202Z,23.06
2018-05-31T22:38:38.070Z,22.97
2018-05-31T22:41:06.820Z,22.93
2018-05-31T22:43:34.589Z,22.90
2018-05-31T22:46:03.450Z,22.84
2018-05-31T22:48:31.980Z,22.72
2018-05-31T22:51:00.188Z,22.72
2018-05-31T22:53:28.025Z,22.71
2018-05-31T22:55:56.045Z,22.73
2018-05-31T22:58:24.125Z,22.74
2018-05-31T23:00:52.106Z,22.70
2018-05-31T23:03:20.234Z,22.64
2018-05-31T23:05:48.564Z,22.58
2018-05-31T23:08:17.010Z,22.60
2018-05-31T23:10:45.136Z,22.62
2018-05-31T23:13:12.923Z,22.57
2018-05-31T23:15:41.194Z,22.51
2018-05-31T23:18:09.237Z,22.53
2018-05-31T23:20:37.140Z,22.58
2018-05-31T23:23:05.172Z,22.53
2018-05-31T23:25:33.281Z,22.49
2018-05-31T23:28:01.151Z,22.48
2018-05-31T23:30:29.322Z,22.47
2018-05-31T23:32:57.545Z,22.43
2018-05-31T23:35:25.430Z,22.32
2018-05-31T23:37:53.331Z,22.29
2018-05-31T23:40:21.911Z,22.33
2018-05-31T23:42:50.107Z,22.33
2018-05-31T23:45:18.061Z,22.36
2018-05-31T23:47:46.078Z,22.32
2018-05-31T23:50:13.923Z,22.05
2018-05-31T23:52:41.787Z,22.10
2018-05-31T23:55:10.253Z,22.04
2018-05-31T23:57:38.161Z,22.00
